sensor_id;sensor_type;location;lat;lon;timestamp;pressure;altitude;pressure_sealevel;temperature;humidity
51460;BME280;37534;39.772;2.718;2024-02-15T00:02:20;101926.84;;;15.01;97.59
51460;BME280;37534;39.772;2.718;2024-02-15T00:04:46;101916.50;;;15.00;98.48
51460;BME280;37534;39.772;2.718;2024-02-15T00:07:11;101940.63;;;15.05;100.00
51460;BME280;37534;39.772;2.718;2024-02-15T00:09:37;101928.66;;;14.99;100.00
51460;BME280;37534;39.772;2.718;2024-02-15T00:12:02;101934.47;;;15.08;100.00
51460;BME280;37534;39.772;2.718;2024-02-15T00:14:28;101920.75;;;15.02;100.00
51460;BME280;37534;39.772;2.718;2024-02-15T00:16:54;101917.38;;;14.99;100.00
51460;BME280;37534;39.772;2.718;2024-02-15T00:19:20;101915.81;;;14.92;100.00
51460;BME280;37534;39.772;2.718;2024-02-15T00:21:46;101903.09;;;14.81;100.00
51460;BME280;37534;39.772;2.718;2024-02-15T00:24:12;101921.09;;;14.89;100.00
51460;BME280;37534;39.772;2.718;2024-02-15T00:26:40;101914.31;;;14.83;100.00
51460;BME280;37534;39.772;2.718;2024-02-15T00:29:05;101924.56;;;14.89;100.00
51460;BME280;37534;39.772;2.718;2024-02-15T00:31:31;101920.09;;;14.94;100.00
51460;BME280;37534;39.772;2.718;2024-02-15T00:33:57;101911.34;;;14.98;99.39
51460;BME280;37534;39.772;2.718;2024-02-15T00:36:24;101904.59;;;14.91;100.00
51460;BME280;37534;39.772;2.718;2024-02-15T00:38:50;101899.13;;;14.66;100.00
51460;BME280;37534;39.772;2.718;2024-02-15T00:41:17;101910.56;;;14.57;100.00
51460;BME280;37534;39.772;2.718;2024-02-15T00:43:43;101893.25;;;14.56;100.00
51460;BME280;37534;39.772;2.718;2024-02-15T00:46:08;101881.75;;;14.70;100.00
51460;BME280;37534;39.772;2.718;2024-02-15T00:48:34;101888.56;;;14.74;100.00
51460;BME280;37534;39.772;2.718;2024-02-15T00:50:59;101864.59;;;14.62;100.00
51460;BME280;37534;39.772;2.718;2024-02-15T00:53:25;101870.53;;;14.68;100.00
51460;BME280;37534;39.772;2.718;2024-02-15T00:55:51;101867.66;;;14.78;98.81
51460;BME280;37534;39.772;2.718;2024-02-15T00:58:17;101856.63;;;14.69;99.01
51460;BME280;37534;39.772;2.718;2024-02-15T01:00:42;101852.25;;;14.71;98.61
51460;BME280;37534;39.772;2.718;2024-02-15T01:03:07;101862.56;;;14.74;98.70
51460;BME280;37534;39.772;2.718;2024-02-15T01:05:33;101863.56;;;14.70;99.23
51460;BME280;37534;39.772;2.718;2024-02-15T01:07:59;101857.75;;;14.58;100.00
51460;BME280;37534;39.772;2.718;2024-02-15T01:10:25;101853.56;;;14.51;100.00
51460;BME280;37534;39.772;2.718;2024-02-15T01:12:52;101855.28;;;14.52;100.00
51460;BME280;37534;39.772;2.718;2024-02-15T01:15:17;101852.63;;;14.55;98.79
51460;BME280;37534;39.772;2.718;2024-02-15T01:17:45;101856.81;;;14.62;98.61
51460;BME280;37534;39.772;2.718;2024-02-15T01:20:12;101858.63;;;14.57;98.49
51460;BME280;37534;39.772;2.718;2024-02-15T01:22:37;101866.31;;;14.62;97.58
51460;BME280;37534;39.772;2.718;2024-02-15T01:25:03;101865.88;;;14.80;95.95
51460;BME280;37534;39.772;2.718;2024-02-15T01:27:29;101857.03;;;14.88;95.11
51460;BME280;37534;39.772;2.718;2024-02-15T01:29:57;101857.50;;;15.04;90.63
51460;BME280;37534;39.772;2.718;2024-02-15T01:32:23;101851.66;;;14.94;90.28
51460;BME280;37534;39.772;2.718;2024-02-15T01:34:49;101851.59;;;14.97;87.85
51460;BME280;37534;39.772;2.718;2024-02-15T01:37:19;101845.66;;;15.25;78.44
51460;BME280;37534;39.772;2.718;2024-02-15T01:39:45;101843.88;;;15.27;84.39
51460;BME280;37534;39.772;2.718;2024-02-15T01:42:11;101845.16;;;15.43;79.52
51460;BME280;37534;39.772;2.718;2024-02-15T01:44:42;101845.06;;;15.77;76.53
51460;BME280;37534;39.772;2.718;2024-02-15T01:47:10;101848.28;;;15.86;75.36
51460;BME280;37534;39.772;2.718;2024-02-15T01:49:36;101838.63;;;15.89;71.63
51460;BME280;37534;39.772;2.718;2024-02-15T01:52:02;101847.63;;;16.07;76.24
51460;BME280;37534;39.772;2.718;2024-02-15T01:54:30;101841.91;;;15.96;79.87
51460;BME280;37534;39.772;2.718;2024-02-15T01:56:57;101847.47;;;15.84;79.07
51460;BME280;37534;39.772;2.718;2024-02-15T01:59:23;101839.03;;;15.74;79.32
51460;BME280;37534;39.772;2.718;2024-02-15T02:01:50;101832.75;;;15.53;81.85
51460;BME280;37534;39.772;2.718;2024-02-15T02:04:16;101825.38;;;15.37;84.07
51460;BME280;37534;39.772;2.718;2024-02-15T02:06:41;101840.03;;;15.40;86.72
51460;BME280;37534;39.772;2.718;2024-02-15T02:09:11;101820.84;;;15.13;87.82
51460;BME280;37534;39.772;2.718;2024-02-15T02:11:45;101821.78;;;15.42;83.19
51460;BME280;37534;39.772;2.718;2024-02-15T02:14:11;101814.69;;;15.47;83.92
51460;BME280;37534;39.772;2.718;2024-02-15T02:16:37;101821.16;;;15.33;85.17
51460;BME280;37534;39.772;2.718;2024-02-15T02:19:04;101822.16;;;15.28;86.66
51460;BME280;37534;39.772;2.718;2024-02-15T02:21:35;101818.78;;;15.24;83.53
51460;BME280;37534;39.772;2.718;2024-02-15T02:24:02;101815.91;;;15.04;85.03
51460;BME280;37534;39.772;2.718;2024-02-15T02:26:33;101814.03;;;15.09;83.65
51460;BME280;37534;39.772;2.718;2024-02-15T02:29:00;101801.44;;;14.93;71.38
51460;BME280;37534;39.772;2.718;2024-02-15T02:31:35;101790.00;;;15.32;61.44
51460;BME280;37534;39.772;2.718;2024-02-15T02:34:00;101789.84;;;15.66;57.37
51460;BME280;37534;39.772;2.718;2024-02-15T02:36:26;101801.81;;;16.02;54.54
51460;BME280;37534;39.772;2.718;2024-02-15T02:38:52;101791.31;;;16.31;53.97
51460;BME280;37534;39.772;2.718;2024-02-15T02:41:18;101784.66;;;16.49;50.63
51460;BME280;37534;39.772;2.718;2024-02-15T02:43:46;101776.03;;;16.72;47.40
51460;BME280;37534;39.772;2.718;2024-02-15T02:46:12;101761.78;;;16.84;45.70
51460;BME280;37534;39.772;2.718;2024-02-15T02:48:39;101770.00;;;16.97;45.65
51460;BME280;37534;39.772;2.718;2024-02-15T02:51:07;101778.47;;;17.04;45.93
51460;BME280;37534;39.772;2.718;2024-02-15T02:53:32;101773.41;;;16.99;46.21
51460;BME280;37534;39.772;2.718;2024-02-15T02:55:58;101763.13;;;16.95;45.07
51460;BME280;37534;39.772;2.718;2024-02-15T02:58:24;101770.09;;;16.94;42.84
51460;BME280;37534;39.772;2.718;2024-02-15T03:00:50;101774.72;;;16.86;47.22
51460;BME280;37534;39.772;2.718;2024-02-15T03:03:16;101756.50;;;16.34;50.79
51460;BME280;37534;39.772;2.718;2024-02-15T03:05:41;101763.13;;;16.18;50.04
51460;BME280;37534;39.772;2.718;2024-02-15T03:08:14;101758.00;;;15.88;47.75
51460;BME280;37534;39.772;2.718;2024-02-15T03:10:39;101756.69;;;15.74;49.31
51460;BME280;37534;39.772;2.718;2024-02-15T03:13:06;101752.50;;;15.97;46.12
51460;BME280;37534;39.772;2.718;2024-02-15T03:15:34;101751.00;;;15.90;44.72
51460;BME280;37534;39.772;2.718;2024-02-15T03:17:59;101745.78;;;15.90;44.23
51460;BME280;37534;39.772;2.718;2024-02-15T03:20:25;101742.78;;;16.02;45.32
51460;BME280;37534;39.772;2.718;2024-02-15T03:25:16;101744.69;;;15.97;44.25
51460;BME280;37534;39.772;2.718;2024-02-15T03:27:42;101739.56;;;16.22;42.97
51460;BME280;37534;39.772;2.718;2024-02-15T03:30:08;101732.44;;;16.27;44.22
51460;BME280;37534;39.772;2.718;2024-02-15T03:32:36;101746.41;;;15.98;45.27
51460;BME280;37534;39.772;2.718;2024-02-15T03:35:02;101727.53;;;16.18;41.38
51460;BME280;37534;39.772;2.718;2024-02-15T03:37:28;101726.91;;;16.37;41.52
51460;BME280;37534;39.772;2.718;2024-02-15T03:39:54;101739.63;;;16.46;44.17
51460;BME280;37534;39.772;2.718;2024-02-15T03:42:20;101741.16;;;16.51;43.16
51460;BME280;37534;39.772;2.718;2024-02-15T03:44:45;101719.44;;;16.52;42.83
51460;BME280;37534;39.772;2.718;2024-02-15T03:47:13;101727.13;;;16.56;41.22
51460;BME280;37534;39.772;2.718;2024-02-15T03:49:43;101735.47;;;16.40;42.07
51460;BME280;37534;39.772;2.718;2024-02-15T03:52:08;101744.59;;;16.27;42.54
51460;BME280;37534;39.772;2.718;2024-02-15T03:54:36;101729.31;;;16.16;42.29
51460;BME280;37534;39.772;2.718;2024-02-15T03:57:02;101720.06;;;16.07;41.89
51460;BME280;37534;39.772;2.718;2024-02-15T03:59:27;101725.28;;;16.07;42.12
51460;BME280;37534;39.772;2.718;2024-02-15T04:01:53;101729.69;;;16.05;40.88
51460;BME280;37534;39.772;2.718;2024-02-15T04:04:19;101716.25;;;16.18;40.04
51460;BME280;37534;39.772;2.718;2024-02-15T04:06:51;101720.75;;;16.12;40.38
51460;BME280;37534;39.772;2.718;2024-02-15T04:09:17;101716.88;;;15.99;42.14
51460;BME280;37534;39.772;2.718;2024-02-15T04:11:44;101727.34;;;15.69;42.30
51460;BME280;37534;39.772;2.718;2024-02-15T04:14:11;101701.88;;;15.51;41.08
51460;BME280;37534;39.772;2.718;2024-02-15T04:16:36;101711.25;;;15.56;39.68
51460;BME280;37534;39.772;2.718;2024-02-15T04:19:02;101705.56;;;15.44;43.53
51460;BME280;37534;39.772;2.718;2024-02-15T04:21:28;101699.44;;;15.16;44.36
51460;BME280;37534;39.772;2.718;2024-02-15T04:23:53;101707.28;;;15.15;44.07
51460;BME280;37534;39.772;2.718;2024-02-15T04:26:19;101705.16;;;15.28;42.85
51460;BME280;37534;39.772;2.718;2024-02-15T04:28:46;101708.09;;;15.17;44.23
51460;BME280;37534;39.772;2.718;2024-02-15T04:31:17;101699.84;;;15.02;44.08
51460;BME280;37534;39.772;2.718;2024-02-15T04:33:43;101694.34;;;14.83;44.48
51460;BME280;37534;39.772;2.718;2024-02-15T04:36:08;101697.75;;;14.86;42.68
51460;BME280;37534;39.772;2.718;2024-02-15T04:38:34;101688.28;;;14.83;42.16
51460;BME280;37534;39.772;2.718;2024-02-15T04:41:03;101679.25;;;14.96;41.30
51460;BME280;37534;39.772;2.718;2024-02-15T04:43:30;101683.19;;;14.80;42.26
51460;BME280;37534;39.772;2.718;2024-02-15T04:45:58;101685.44;;;14.92;41.35
51460;BME280;37534;39.772;2.718;2024-02-15T04:48:23;101681.94;;;14.93;40.55
51460;BME280;37534;39.772;2.718;2024-02-15T04:50:50;101679.50;;;14.87;42.22
51460;BME280;37534;39.772;2.718;2024-02-15T04:53:16;101678.47;;;14.61;42.95
51460;BME280;37534;39.772;2.718;2024-02-15T04:55:42;101687.06;;;14.63;41.54
51460;BME280;37534;39.772;2.718;2024-02-15T04:58:07;101680.00;;;14.69;42.54
51460;BME280;37534;39.772;2.718;2024-02-15T05:00:36;101670.09;;;14.50;42.01
51460;BME280;37534;39.772;2.718;2024-02-15T05:03:02;101676.44;;;14.40;40.52
51460;BME280;37534;39.772;2.718;2024-02-15T05:05:27;101670.75;;;14.25;39.13
51460;BME280;37534;39.772;2.718;2024-02-15T05:07:54;101675.00;;;14.62;37.05
51460;BME280;37534;39.772;2.718;2024-02-15T05:10:20;101677.84;;;14.85;37.33
51460;BME280;37534;39.772;2.718;2024-02-15T05:12:45;101678.28;;;14.99;36.43
51460;BME280;37534;39.772;2.718;2024-02-15T05:15:15;101663.09;;;15.15;33.26
51460;BME280;37534;39.772;2.718;2024-02-15T05:17:42;101674.16;;;15.21;35.91
51460;BME280;37534;39.772;2.718;2024-02-15T05:20:11;101680.41;;;15.16;37.17
51460;BME280;37534;39.772;2.718;2024-02-15T05:22:38;101684.75;;;15.15;36.35
51460;BME280;37534;39.772;2.718;2024-02-15T05:25:06;101682.09;;;15.17;37.25
51460;BME280;37534;39.772;2.718;2024-02-15T05:27:33;101668.94;;;14.93;36.96
51460;BME280;37534;39.772;2.718;2024-02-15T05:29:59;101665.59;;;14.88;35.47
51460;BME280;37534;39.772;2.718;2024-02-15T05:32:24;101661.50;;;15.11;31.40
51460;BME280;37534;39.772;2.718;2024-02-15T05:34:53;101669.22;;;15.14;33.78
51460;BME280;37534;39.772;2.718;2024-02-15T05:37:20;101667.84;;;15.00;35.21
51460;BME280;37534;39.772;2.718;2024-02-15T05:39:46;101652.94;;;14.77;35.09
51460;BME280;37534;39.772;2.718;2024-02-15T05:42:11;101645.28;;;14.73;33.53
51460;BME280;37534;39.772;2.718;2024-02-15T05:44:36;101646.25;;;14.98;30.31
51460;BME280;37534;39.772;2.718;2024-02-15T05:47:02;101645.38;;;14.99;30.87
51460;BME280;37534;39.772;2.718;2024-02-15T05:49:28;101642.06;;;14.94;31.52
51460;BME280;37534;39.772;2.718;2024-02-15T05:51:53;101640.19;;;14.99;29.22
51460;BME280;37534;39.772;2.718;2024-02-15T05:54:19;101631.06;;;15.14;29.52
51460;BME280;37534;39.772;2.718;2024-02-15T05:56:47;101637.72;;;15.23;28.49
51460;BME280;37534;39.772;2.718;2024-02-15T05:59:17;101631.16;;;15.39;28.89
51460;BME280;37534;39.772;2.718;2024-02-15T06:01:45;101641.09;;;15.27;29.53
51460;BME280;37534;39.772;2.718;2024-02-15T06:04:10;101640.41;;;15.20;27.88
51460;BME280;37534;39.772;2.718;2024-02-15T06:06:36;101643.66;;;15.28;27.63
51460;BME280;37534;39.772;2.718;2024-02-15T06:09:01;101648.16;;;15.50;24.48
51460;BME280;37534;39.772;2.718;2024-02-15T06:11:28;101656.25;;;15.69;24.30
51460;BME280;37534;39.772;2.718;2024-02-15T06:13:54;101652.63;;;15.74;24.90
51460;BME280;37534;39.772;2.718;2024-02-15T06:16:19;101647.06;;;15.85;25.47
51460;BME280;37534;39.772;2.718;2024-02-15T06:18:46;101640.00;;;15.89;24.05
51460;BME280;37534;39.772;2.718;2024-02-15T06:21:13;101660.38;;;15.76;26.52
51460;BME280;37534;39.772;2.718;2024-02-15T06:23:38;101648.28;;;16.00;22.12
51460;BME280;37534;39.772;2.718;2024-02-15T06:26:04;101670.09;;;16.23;23.63
51460;BME280;37534;39.772;2.718;2024-02-15T06:28:30;101664.47;;;16.35;23.44
51460;BME280;37534;39.772;2.718;2024-02-15T06:31:14;101664.53;;;16.57;21.71
51460;BME280;37534;39.772;2.718;2024-02-15T06:33:59;101675.94;;;16.78;20.32
51460;BME280;37534;39.772;2.718;2024-02-15T06:36:47;101680.59;;;16.95;21.19
51460;BME280;37534;39.772;2.718;2024-02-15T06:39:32;101674.28;;;17.01;21.16
51460;BME280;37534;39.772;2.718;2024-02-15T06:42:10;101677.94;;;17.19;20.70
51460;BME280;37534;39.772;2.718;2024-02-15T06:44:37;101686.66;;;17.18;20.88
51460;BME280;37534;39.772;2.718;2024-02-15T06:47:05;101680.50;;;17.20;20.46
51460;BME280;37534;39.772;2.718;2024-02-15T06:49:32;101691.47;;;17.28;21.92
51460;BME280;37534;39.772;2.718;2024-02-15T06:51:58;101682.19;;;17.21;20.09
51460;BME280;37534;39.772;2.718;2024-02-15T06:54:27;101681.84;;;17.07;21.09
51460;BME280;37534;39.772;2.718;2024-02-15T06:56:52;101685.19;;;17.10;20.53
51460;BME280;37534;39.772;2.718;2024-02-15T06:59:22;101691.28;;;17.11;22.58
51460;BME280;37534;39.772;2.718;2024-02-15T07:01:49;101683.34;;;16.90;21.71
51460;BME280;37534;39.772;2.718;2024-02-15T07:04:17;101670.09;;;16.97;22.22
51460;BME280;37534;39.772;2.718;2024-02-15T07:06:43;101684.47;;;17.07;22.63
51460;BME280;37534;39.772;2.718;2024-02-15T07:09:13;101688.63;;;17.13;22.23
51460;BME280;37534;39.772;2.718;2024-02-15T07:11:41;101680.72;;;17.14;24.21
51460;BME280;37534;39.772;2.718;2024-02-15T07:14:06;101680.88;;;17.33;22.20
51460;BME280;37534;39.772;2.718;2024-02-15T07:16:33;101667.66;;;17.38;22.17
51460;BME280;37534;39.772;2.718;2024-02-15T07:18:59;101676.78;;;17.48;23.10
51460;BME280;37534;39.772;2.718;2024-02-15T07:21:25;101685.00;;;17.39;24.06
51460;BME280;37534;39.772;2.718;2024-02-15T07:23:55;101686.19;;;17.30;24.41
51460;BME280;37534;39.772;2.718;2024-02-15T07:26:23;101677.53;;;17.29;23.46
51460;BME280;37534;39.772;2.718;2024-02-15T07:28:54;101688.63;;;17.57;23.38
51460;BME280;37534;39.772;2.718;2024-02-15T07:31:20;101684.13;;;17.60;24.42
51460;BME280;37534;39.772;2.718;2024-02-15T07:33:50;101682.03;;;17.70;24.70
51460;BME280;37534;39.772;2.718;2024-02-15T07:36:23;101695.53;;;17.80;25.03
51460;BME280;37534;39.772;2.718;2024-02-15T07:38:49;101698.16;;;18.02;24.51
51460;BME280;37534;39.772;2.718;2024-02-15T07:41:17;101687.78;;;18.00;24.60
51460;BME280;37534;39.772;2.718;2024-02-15T07:43:43;101701.03;;;18.16;23.76
51460;BME280;37534;39.772;2.718;2024-02-15T07:46:13;101697.31;;;18.22;25.24
51460;BME280;37534;39.772;2.718;2024-02-15T07:48:45;101696.53;;;18.20;25.87
51460;BME280;37534;39.772;2.718;2024-02-15T07:51:18;101700.09;;;18.17;26.32
51460;BME280;37534;39.772;2.718;2024-02-15T07:53:44;101709.19;;;18.29;26.30
51460;BME280;37534;39.772;2.718;2024-02-15T07:56:10;101698.50;;;18.35;26.17
51460;BME280;37534;39.772;2.718;2024-02-15T07:58:43;101704.38;;;18.40;27.22
51460;BME280;37534;39.772;2.718;2024-02-15T08:01:15;101704.22;;;18.43;26.23
51460;BME280;37534;39.772;2.718;2024-02-15T08:03:41;101702.22;;;18.50;26.72
51460;BME280;37534;39.772;2.718;2024-02-15T08:06:13;101699.41;;;18.55;27.57
51460;BME280;37534;39.772;2.718;2024-02-15T08:08:40;101699.41;;;18.55;28.54
51460;BME280;37534;39.772;2.718;2024-02-15T08:11:07;101705.41;;;18.57;27.33
51460;BME280;37534;39.772;2.718;2024-02-15T08:13:42;101698.13;;;18.84;25.31
51460;BME280;37534;39.772;2.718;2024-02-15T08:16:08;101694.25;;;18.93;26.57
51460;BME280;37534;39.772;2.718;2024-02-15T08:18:33;101698.94;;;19.05;26.10
51460;BME280;37534;39.772;2.718;2024-02-15T08:21:00;101705.28;;;19.18;27.36
51460;BME280;37534;39.772;2.718;2024-02-15T08:23:26;101703.84;;;19.30;27.00
51460;BME280;37534;39.772;2.718;2024-02-15T08:25:52;101700.72;;;19.41;28.02
51460;BME280;37534;39.772;2.718;2024-02-15T08:28:19;101703.72;;;19.70;27.38
51460;BME280;37534;39.772;2.718;2024-02-15T08:30:46;101685.13;;;20.11;29.00
51460;BME280;37534;39.772;2.718;2024-02-15T08:33:12;101698.06;;;20.49;29.16
51460;BME280;37534;39.772;2.718;2024-02-15T08:35:38;101700.28;;;20.90;29.25
51460;BME280;37534;39.772;2.718;2024-02-15T08:38:06;101691.00;;;21.00;29.74
51460;BME280;37534;39.772;2.718;2024-02-15T08:40:31;101691.16;;;21.13;29.90
51460;BME280;37534;39.772;2.718;2024-02-15T08:42:57;101683.34;;;21.43;30.59
51460;BME280;37534;39.772;2.718;2024-02-15T08:45:22;101680.19;;;21.99;30.43
51460;BME280;37534;39.772;2.718;2024-02-15T08:47:48;101690.19;;;22.38;29.83
51460;BME280;37534;39.772;2.718;2024-02-15T08:50:18;101682.13;;;22.26;30.13
51460;BME280;37534;39.772;2.718;2024-02-15T08:52:44;101689.97;;;22.56;30.23
51460;BME280;37534;39.772;2.718;2024-02-15T08:55:10;101694.34;;;23.13;29.75
51460;BME280;37534;39.772;2.718;2024-02-15T08:57:39;101682.75;;;23.57;28.96
51460;BME280;37534;39.772;2.718;2024-02-15T09:00:06;101677.34;;;23.86;28.56
51460;BME280;37534;39.772;2.718;2024-02-15T09:02:39;101687.13;;;24.75;27.80
51460;BME280;37534;39.772;2.718;2024-02-15T09:05:06;101687.25;;;25.11;26.15
51460;BME280;37534;39.772;2.718;2024-02-15T09:07:31;101686.81;;;25.04;27.31
51460;BME280;37534;39.772;2.718;2024-02-15T09:09:57;101680.78;;;25.63;26.84
51460;BME280;37534;39.772;2.718;2024-02-15T09:12:22;101672.69;;;26.24;26.54
51460;BME280;37534;39.772;2.718;2024-02-15T09:14:48;101688.91;;;26.31;24.70
51460;BME280;37534;39.772;2.718;2024-02-15T09:17:14;101681.16;;;25.94;24.44
51460;BME280;37534;39.772;2.718;2024-02-15T09:19:39;101681.81;;;26.43;24.49
51460;BME280;37534;39.772;2.718;2024-02-15T09:22:05;101676.88;;;26.61;24.59
51460;BME280;37534;39.772;2.718;2024-02-15T09:24:32;101675.22;;;26.93;24.47
51460;BME280;37534;39.772;2.718;2024-02-15T09:27:00;101675.72;;;27.84;23.77
51460;BME280;37534;39.772;2.718;2024-02-15T09:29:28;101662.94;;;28.41;21.37
51460;BME280;37534;39.772;2.718;2024-02-15T09:31:55;101673.25;;;29.16;21.13
51460;BME280;37534;39.772;2.718;2024-02-15T09:34:22;101663.47;;;29.75;20.73
51460;BME280;37534;39.772;2.718;2024-02-15T09:36:47;101668.31;;;30.46;19.88
51460;BME280;37534;39.772;2.718;2024-02-15T09:39:13;101680.78;;;31.37;20.10
51460;BME280;37534;39.772;2.718;2024-02-15T09:41:39;101687.28;;;31.97;19.57
51460;BME280;37534;39.772;2.718;2024-02-15T09:44:06;101665.56;;;31.92;18.43
51460;BME280;37534;39.772;2.718;2024-02-15T09:46:43;101675.78;;;31.16;19.88
51460;BME280;37534;39.772;2.718;2024-02-15T09:49:11;101682.22;;;30.68;19.97
51460;BME280;37534;39.772;2.718;2024-02-15T09:51:37;101660.56;;;30.06;20.40
51460;BME280;37534;39.772;2.718;2024-02-15T09:54:03;101674.59;;;29.98;20.13
51460;BME280;37534;39.772;2.718;2024-02-15T09:56:30;101659.53;;;29.69;20.10
51460;BME280;37534;39.772;2.718;2024-02-15T09:58:57;101660.28;;;30.19;20.61
51460;BME280;37534;39.772;2.718;2024-02-15T10:01:25;101665.97;;;29.76;19.69
51460;BME280;37534;39.772;2.718;2024-02-15T10:03:52;101661.09;;;30.19;20.04
51460;BME280;37534;39.772;2.718;2024-02-15T10:06:18;101647.28;;;31.35;19.80
51460;BME280;37534;39.772;2.718;2024-02-15T10:08:44;101649.66;;;31.38;19.53
51460;BME280;37534;39.772;2.718;2024-02-15T10:11:12;101655.13;;;31.36;19.40
51460;BME280;37534;39.772;2.718;2024-02-15T10:13:38;101647.88;;;31.28;18.83
51460;BME280;37534;39.772;2.718;2024-02-15T10:16:31;101630.34;;;30.72;19.49
51460;BME280;37534;39.772;2.718;2024-02-15T10:19:09;101637.53;;;30.34;20.28
51460;BME280;37534;39.772;2.718;2024-02-15T10:21:35;101642.69;;;31.09;19.25
51460;BME280;37534;39.772;2.718;2024-02-15T10:24:08;101622.63;;;30.41;19.43
51460;BME280;37534;39.772;2.718;2024-02-15T10:26:34;101633.81;;;30.73;19.76
51460;BME280;37534;39.772;2.718;2024-02-15T10:29:07;101633.16;;;30.88;19.45
51460;BME280;37534;39.772;2.718;2024-02-15T10:31:35;101634.50;;;31.20;19.35
51460;BME280;37534;39.772;2.718;2024-02-15T10:34:05;101632.06;;;30.36;20.02
51460;BME280;37534;39.772;2.718;2024-02-15T10:36:31;101632.19;;;30.44;20.07
51460;BME280;37534;39.772;2.718;2024-02-15T10:41:44;101629.28;;;30.83;19.80
51460;BME280;37534;39.772;2.718;2024-02-15T10:44:16;101615.91;;;30.47;20.72
51460;BME280;37534;39.772;2.718;2024-02-15T10:46:44;101626.81;;;29.20;20.77
51460;BME280;37534;39.772;2.718;2024-02-15T10:49:11;101604.19;;;28.66;21.77
51460;BME280;37534;39.772;2.718;2024-02-15T10:51:39;101614.47;;;28.99;21.12
51460;BME280;37534;39.772;2.718;2024-02-15T10:54:12;101613.09;;;29.15;21.22
51460;BME280;37534;39.772;2.718;2024-02-15T10:56:45;101597.84;;;28.37;22.68
51460;BME280;37534;39.772;2.718;2024-02-15T10:59:18;101586.97;;;27.88;22.80
51460;BME280;37534;39.772;2.718;2024-02-15T11:01:49;101600.47;;;27.97;23.09
51460;BME280;37534;39.772;2.718;2024-02-15T11:04:20;101592.88;;;27.92;23.06
51460;BME280;37534;39.772;2.718;2024-02-15T11:06:50;101593.91;;;27.05;23.57
51460;BME280;37534;39.772;2.718;2024-02-15T11:09:18;101594.44;;;26.88;24.37
51460;BME280;37534;39.772;2.718;2024-02-15T11:11:45;101578.38;;;25.89;24.58
51460;BME280;37534;39.772;2.718;2024-02-15T11:14:25;101584.09;;;25.01;25.08
51460;BME280;37534;39.772;2.718;2024-02-15T11:16:51;101572.13;;;25.08;25.76
51460;BME280;37534;39.772;2.718;2024-02-15T11:22:00;101573.19;;;25.76;25.06
51460;BME280;37534;39.772;2.718;2024-02-15T11:24:30;101561.91;;;26.53;24.28
51460;BME280;37534;39.772;2.718;2024-02-15T11:27:01;101553.09;;;27.40;23.90
51460;BME280;37534;39.772;2.718;2024-02-15T11:29:58;101552.84;;;27.43;23.57
51460;BME280;37534;39.772;2.718;2024-02-15T11:32:48;101554.38;;;27.46;23.97
51460;BME280;37534;39.772;2.718;2024-02-15T11:35:16;101550.56;;;27.39;23.85
51460;BME280;37534;39.772;2.718;2024-02-15T11:42:59;101526.34;;;27.11;23.31
51460;BME280;37534;39.772;2.718;2024-02-15T11:45:25;101522.09;;;27.20;23.55
51460;BME280;37534;39.772;2.718;2024-02-15T11:47:53;101505.88;;;27.13;23.81
51460;BME280;37534;39.772;2.718;2024-02-15T11:50:20;101511.34;;;27.33;23.18
51460;BME280;37534;39.772;2.718;2024-02-15T11:52:47;101496.81;;;26.94;23.16
51460;BME280;37534;39.772;2.718;2024-02-15T11:55:20;101514.47;;;27.05;23.27
51460;BME280;37534;39.772;2.718;2024-02-15T11:57:59;101498.00;;;27.23;23.09
51460;BME280;37534;39.772;2.718;2024-02-15T12:00:31;101493.75;;;27.53;22.83
51460;BME280;37534;39.772;2.718;2024-02-15T12:03:17;101473.13;;;27.35;22.60
51460;BME280;37534;39.772;2.718;2024-02-15T12:06:01;101465.41;;;27.53;22.65
51460;BME280;37534;39.772;2.718;2024-02-15T12:08:50;101462.28;;;27.38;22.64
51460;BME280;37534;39.772;2.718;2024-02-15T12:11:35;101452.69;;;26.84;23.21
51460;BME280;37534;39.772;2.718;2024-02-15T12:14:19;101445.41;;;26.44;23.69
51460;BME280;37534;39.772;2.718;2024-02-15T12:17:07;101449.34;;;27.24;22.73
51460;BME280;37534;39.772;2.718;2024-02-15T12:19:53;101446.94;;;27.73;23.88
51460;BME280;37534;39.772;2.718;2024-02-15T12:24:59;101439.56;;;27.76;23.66
51460;BME280;37534;39.772;2.718;2024-02-15T12:27:26;101447.88;;;27.62;23.06
51460;BME280;37534;39.772;2.718;2024-02-15T12:30:01;101443.69;;;28.00;21.96
51460;BME280;37534;39.772;2.718;2024-02-15T12:32:30;101438.34;;;28.70;21.74
51460;BME280;37534;39.772;2.718;2024-02-15T12:35:28;101433.25;;;28.08;22.70
51460;BME280;37534;39.772;2.718;2024-02-15T12:40:29;101415.25;;;28.02;22.66
51460;BME280;37534;39.772;2.718;2024-02-15T12:42:55;101401.75;;;28.63;22.73
51460;BME280;37534;39.772;2.718;2024-02-15T12:45:21;101397.56;;;28.61;22.09
51460;BME280;37534;39.772;2.718;2024-02-15T12:47:51;101389.53;;;29.00;22.17
51460;BME280;37534;39.772;2.718;2024-02-15T12:50:19;101389.75;;;29.54;21.98
51460;BME280;37534;39.772;2.718;2024-02-15T12:52:47;101376.03;;;29.58;21.39
51460;BME280;37534;39.772;2.718;2024-02-15T12:55:13;101366.25;;;28.25;21.92
51460;BME280;37534;39.772;2.718;2024-02-15T12:57:40;101372.81;;;28.02;22.51
51460;BME280;37534;39.772;2.718;2024-02-15T13:00:08;101359.56;;;28.41;22.03
51460;BME280;37534;39.772;2.718;2024-02-15T13:02:39;101372.09;;;28.88;22.12
51460;BME280;37534;39.772;2.718;2024-02-15T13:05:06;101349.78;;;29.18;21.99
51460;BME280;37534;39.772;2.718;2024-02-15T13:07:36;101358.47;;;29.93;21.36
51460;BME280;37534;39.772;2.718;2024-02-15T13:10:01;101349.44;;;30.04;20.74
51460;BME280;37534;39.772;2.718;2024-02-15T13:12:28;101328.84;;;29.05;20.99
51460;BME280;37534;39.772;2.718;2024-02-15T13:14:54;101329.31;;;28.81;22.57